LFPG/CDG METAR and TAF weather

Enter ICAO airport designator
Station Type Date Time Source
LFPG METAR 2019/04/24 15:30 UTC NOAA

LFPG 241530Z 19014KT 9999 SCT031 FEW034CB SCT071 15/06 Q0999 TEMPO 19015G25KT -TSRA


Station Type Date Time Source
LFPG Decoded METAR 2019/04/24 15:30 UTC NOAA

Paris-Aeroport Charles De Gaulle, France (LFPG) 49-01N 002-32E 109M
Apr 24, 2019 - 11:30 AM EDT / 2019.04.24 1530 UTC
Wind: from the S (190 degrees) at 16 MPH (14 KT):0
Visibility: greater than 7 mile(s):0
Sky conditions: partly cloudy
Weather: Cumulonimbus clouds observed
Temperature: 59 F (15 C)
Dew Point: 42 F (6 C)
Relative Humidity: 54%
Pressure (altimeter): 29.50 in. Hg (0999 hPa)
ob: LFPG 241530Z 19014KT 9999 SCT031 FEW034CB SCT071 15/06 Q0999 TEMPO 19015G25KT -TSRA
cycle: 15

Station Type Date Time Source
LFPG TAF 2019/04/24 12:42 UTC NOAA

TAF LFPG 241100Z 2412/2518 19015G25KT 9999 BKN030 TX17/2414Z TN11/2505Z PROB40
TEMPO 2414/2417 -SHRA SCT030TCU PROB30
TEMPO 2415/2417 -TSRA SCT030CB
BECMG 2418/2420 15010KT
TEMPO 2505/2507 15015G30KT -RA BKN014
BECMG 2508/2510 19015G25KT
TEMPO 2512/2518 -SHRA SCT030TCU PROB30
TEMPO 2514/2518 -TSRA SCT025CB

Example: see airport list